Time;durP1;ratioP1;P1;durP2;ratioP2;P2;SDS_P1;SDS_P2;PMS_P1;PMS_P2;Temp;Humidity;BMP_temperature;BMP_pressure;BME280_temperature;BME280_humidity;BME280_pressure;Samples;Min_cycle;Max_cycle;Signal;HPM_P1;HPM_P2
2021/03/17 00:02:51;;;;;;;10.83;7.17;;;;;;;2.51;81.63;98508.34;258901;1108;23169;-75
2021/03/17 00:08:12;;;;;;;11.40;7.67;;;;;;;2.48;81.45;98522.83;258851;1108;23038;-75
2021/03/17 00:13:32;;;;;;;11.50;7.70;;;;;;;2.50;81.54;98517.30;258969;1107;27749;-76
2021/03/17 00:18:55;;;;;;;12.90;7.95;;;;;;;2.50;81.12;98522.59;258998;1108;23055;-76
2021/03/17 00:24:16;;;;;;;11.57;7.53;;;;;;;2.52;81.50;98517.88;258957;1109;23490;-76
2021/03/17 00:29:37;;;;;;;12.63;8.00;;;;;;;2.50;81.34;98509.37;258994;1109;23590;-76
2021/03/17 00:34:58;;;;;;;14.80;8.47;;;;;;;2.48;81.07;98514.11;258943;1108;23194;-75
2021/03/17 00:40:19;;;;;;;12.20;7.50;;;;;;;2.45;81.11;98507.45;258913;1109;23086;-76
2021/03/17 00:45:40;;;;;;;12.53;7.83;;;;;;;2.44;81.81;98507.70;258871;1108;26556;-75
2021/03/17 00:50:48;;;;;;;9.50;6.73;;;;;;;2.39;82.07;98505.77;258959;1109;23001;-75
2021/03/17 00:55:50;;;;;;;13.03;7.97;;;;;;;2.37;81.52;98506.00;258956;1109;23029;-75
2021/03/17 01:00:58;;;;;;;11.43;7.40;;;;;;;2.39;81.55;98511.05;258888;1109;23017;-75
2021/03/17 01:06:01;;;;;;;11.67;7.73;;;;;;;2.38;81.67;98512.91;259033;1109;22986;-75
2021/03/17 01:11:03;;;;;;;13.53;8.13;;;;;;;2.38;81.89;98496.25;258859;1109;23019;-76
2021/03/17 01:16:06;;;;;;;15.80;8.93;;;;;;;2.38;81.50;98501.54;258911;1109;23437;-75
2021/03/17 01:21:08;;;;;;;14.17;9.27;;;;;;;2.41;81.75;98493.12;258926;1107;26053;-75
2021/03/17 01:26:10;;;;;;;15.10;9.53;;;;;;;2.42;81.09;98500.02;258790;1108;23024;-75
2021/03/17 01:31:12;;;;;;;14.37;8.63;;;;;;;2.44;81.63;98511.14;258717;1108;23117;-76
2021/03/17 01:36:15;;;;;;;14.73;10.33;;;;;;;2.49;82.17;98505.11;258986;1109;23174;-76
2021/03/17 01:41:17;;;;;;;15.40;10.37;;;;;;;2.52;81.55;98497.52;258945;1107;23027;-75
2021/03/17 01:46:19;;;;;;;15.30;9.73;;;;;;;2.50;81.72;98493.50;258958;1108;23076;-75
2021/03/17 01:51:21;;;;;;;13.47;9.07;;;;;;;2.49;81.38;98503.30;258889;1108;23079;-75
2021/03/17 01:56:23;;;;;;;16.07;9.73;;;;;;;2.48;81.53;98496.39;259232;1108;23007;-75
2021/03/17 02:01:26;;;;;;;13.60;8.97;;;;;;;2.47;81.12;98492.14;258953;1109;23037;-76
2021/03/17 02:06:29;;;;;;;13.73;9.03;;;;;;;2.48;82.08;98495.61;258893;1108;23030;-75
2021/03/17 02:11:31;;;;;;;14.45;9.40;;;;;;;2.49;81.29;98492.72;258824;1109;23037;-75
2021/03/17 02:16:40;;;;;;;14.20;8.30;;;;;;;2.50;81.24;98496.15;258832;1108;23238;-75
2021/03/17 02:22:21;;;;;;;13.45;8.18;;;;;;;2.48;81.34;98496.39;258881;1108;23027;-76
2021/03/17 02:27:41;;;;;;;13.90;8.73;;;;;;;2.48;81.30;98485.02;258956;1108;23020;-76
2021/03/17 02:33:22;;;;;;;12.23;7.80;;;;;;;2.46;81.21;98487.88;259058;1109;23066;-75
2021/03/17 02:38:25;;;;;;;11.75;8.05;;;;;;;2.45;82.02;98490.77;258975;1107;23081;-76
2021/03/17 02:43:31;;;;;;;12.17;7.73;;;;;;;2.40;81.27;98497.59;259175;1108;23242;-75
2021/03/17 02:48:42;;;;;;;12.20;8.00;;;;;;;2.33;81.74;98501.45;259078;1108;26402;-76
2021/03/17 02:53:45;;;;;;;11.07;7.37;;;;;;;2.22;81.62;98497.84;258830;1108;23027;-75
2021/03/17 02:58:50;;;;;;;10.10;6.77;;;;;;;2.08;81.25;98499.20;259108;1108;23061;-76
2021/03/17 03:03:52;;;;;;;10.43;6.83;;;;;;;2.03;81.56;98494.64;258902;1109;23007;-77
2021/03/17 03:08:54;;;;;;;11.50;7.30;;;;;;;2.03;81.40;98497.28;258948;1109;23038;-76
2021/03/17 03:13:57;;;;;;;12.03;7.87;;;;;;;1.99;81.21;98502.23;259273;1109;23013;-75
2021/03/17 03:19:00;;;;;;;12.57;8.47;;;;;;;1.96;81.75;98493.97;258950;1108;23053;-75
2021/03/17 03:24:05;;;;;;;12.37;8.03;;;;;;;1.94;81.57;98503.98;258722;1108;23073;-76
2021/03/17 03:29:10;;;;;;;13.00;8.07;;;;;;;1.95;81.95;98495.83;259112;1108;26086;-76
2021/03/17 03:34:13;;;;;;;15.37;10.03;;;;;;;1.95;82.16;98505.60;258969;1108;23708;-76
2021/03/17 03:39:15;;;;;;;13.93;8.63;;;;;;;1.92;82.22;98500.77;259002;1109;23361;-75
2021/03/17 03:44:17;;;;;;;13.73;8.70;;;;;;;1.93;82.28;98505.84;259041;1109;23091;-76
2021/03/17 03:49:19;;;;;;;15.83;10.67;;;;;;;1.95;81.59;98506.39;258774;1109;23063;-76
2021/03/17 03:54:25;;;;;;;16.00;9.80;;;;;;;1.97;82.37;98514.08;259018;1109;23077;-75
2021/03/17 03:59:38;;;;;;;16.60;9.77;;;;;;;1.95;82.37;98508.24;259030;1108;23119;-75
2021/03/17 04:04:44;;;;;;;18.50;10.55;;;;;;;1.96;82.55;98513.28;259079;1108;23030;-76
2021/03/17 04:09:49;;;;;;;15.23;10.87;;;;;;;2.04;82.44;98510.25;258502;1108;23090;-76
2021/03/17 04:14:56;;;;;;;17.53;10.80;;;;;;;2.10;82.13;98511.14;258684;1109;23024;-75
2021/03/17 04:20:04;;;;;;;17.27;9.80;;;;;;;2.13;82.95;98510.66;258990;1108;23225;-75
2021/03/17 04:25:09;;;;;;;18.10;11.27;;;;;;;2.15;82.62;98502.48;258888;1108;23226;-76
2021/03/17 04:30:13;;;;;;;17.87;11.67;;;;;;;2.17;82.90;98506.50;258847;1108;23021;-74
2021/03/17 04:35:17;;;;;;;17.83;10.30;;;;;;;2.19;82.93;98511.54;258697;1109;23067;-75
2021/03/17 04:40:21;;;;;;;18.93;10.73;;;;;;;2.18;82.76;98515.22;259107;1108;23016;-77
2021/03/17 04:45:23;;;;;;;17.50;10.37;;;;;;;2.20;83.15;98508.66;258995;1108;23021;-76
2021/03/17 04:50:27;;;;;;;19.77;11.20;;;;;;;2.22;83.00;98511.88;259098;1108;23022;-74
2021/03/17 04:55:30;;;;;;;18.73;11.27;;;;;;;2.20;82.70;98511.30;259304;1108;26444;-76
2021/03/17 05:00:32;;;;;;;17.87;10.57;;;;;;;2.22;83.32;98513.70;259171;1108;23188;-76
2021/03/17 05:05:38;;;;;;;18.00;10.63;;;;;;;2.25;83.28;98515.86;258917;1109;27749;-76
2021/03/17 05:10:43;;;;;;;16.53;11.03;;;;;;;2.30;83.17;98517.80;259019;1108;23321;-76
2021/03/17 05:15:46;;;;;;;17.75;11.30;;;;;;;2.30;82.80;98523.08;258904;1107;23229;-76
2021/03/17 05:20:51;;;;;;;15.17;9.67;;;;;;;2.30;83.00;98523.08;259070;1108;23024;-76
2021/03/17 05:25:55;;;;;;;15.57;9.47;;;;;;;2.30;83.23;98531.02;260085;1107;23222;-75
2021/03/17 05:30:58;;;;;;;13.53;9.03;;;;;;;2.30;82.78;98528.38;259054;1107;23049;-75
2021/03/17 05:36:02;;;;;;;15.13;8.67;;;;;;;2.31;83.16;98525.48;259196;1108;23017;-75
2021/03/17 05:41:04;;;;;;;11.63;8.13;;;;;;;2.34;82.92;98537.42;259244;1108;23030;-75
2021/03/17 05:46:06;;;;;;;10.47;6.70;;;;;;;2.37;82.88;98545.66;259077;1108;23232;-76
2021/03/17 05:51:09;;;;;;;8.35;5.85;;;;;;;2.34;82.61;98540.86;259365;1107;23091;-76
2021/03/17 05:56:12;;;;;;;8.37;5.50;;;;;;;2.31;82.96;98551.09;259146;1108;23225;-75
2021/03/17 06:01:15;;;;;;;10.85;6.35;;;;;;;2.23;82.54;98553.09;259073;1109;23226;-75
2021/03/17 06:06:19;;;;;;;12.00;7.33;;;;;;;2.19;82.67;98551.19;259101;1108;23147;-74
2021/03/17 06:11:22;;;;;;;10.83;6.17;;;;;;;2.15;82.28;98555.34;259311;1108;23003;-76
2021/03/17 06:16:25;;;;;;;11.97;7.87;;;;;;;2.13;82.59;98552.94;259156;1108;22994;-76
2021/03/17 06:21:28;;;;;;;12.80;7.20;;;;;;;2.13;82.51;98563.51;258824;1108;23030;-76
2021/03/17 06:26:34;;;;;;;14.83;9.20;;;;;;;2.17;83.22;98580.50;259013;1108;23245;-76
2021/03/17 06:31:37;;;;;;;13.97;8.50;;;;;;;2.15;82.42;98569.34;259134;1108;23038;-75
2021/03/17 06:36:50;;;;;;;12.17;7.23;;;;;;;2.16;82.33;98578.89;258931;1108;23080;-74
2021/03/17 06:41:54;;;;;;;13.77;8.43;;;;;;;2.14;82.31;98575.69;259122;1109;23070;-75
2021/03/17 06:47:32;;;;;;;12.80;8.03;;;;;;;2.15;82.89;98582.56;259642;1108;24621;-76
2021/03/17 06:52:39;;;;;;;16.73;10.03;;;;;;;2.18;82.70;98584.75;259236;1108;23451;-75
2021/03/17 06:57:46;;;;;;;14.70;8.77;;;;;;;2.26;82.64;98588.04;259416;1108;23027;-75
2021/03/17 07:02:49;;;;;;;16.67;9.93;;;;;;;2.31;83.36;98590.75;259682;1107;23204;-75
2021/03/17 07:07:52;;;;;;;17.53;10.60;;;;;;;2.36;82.60;98588.20;259787;1107;23171;-75
2021/03/17 07:12:59;;;;;;;18.33;11.50;;;;;;;2.36;83.65;98590.84;259982;1108;23235;-75
2021/03/17 07:18:12;;;;;;;17.67;10.00;;;;;;;2.38;83.75;98596.71;259616;1107;22984;-76
2021/03/17 07:23:21;;;;;;;19.33;11.50;;;;;;;2.41;83.25;98588.30;259726;1107;23507;-76
2021/03/17 07:28:25;;;;;;;19.43;11.20;;;;;;;2.43;83.62;98601.27;259499;1109;23087;-75
2021/03/17 07:33:27;;;;;;;20.13;11.13;;;;;;;2.53;83.53;98596.96;259375;1108;23347;-76
2021/03/17 07:38:31;;;;;;;20.55;11.00;;;;;;;2.64;82.97;98594.47;259601;1108;23091;-76
2021/03/17 07:43:36;;;;;;;19.60;9.90;;;;;;;2.71;83.72;98601.22;259371;1108;26074;-76
2021/03/17 07:48:40;;;;;;;15.80;9.93;;;;;;;2.76;83.54;98602.31;260051;1108;23232;-75
2021/03/17 07:53:47;;;;;;;19.55;10.65;;;;;;;2.79;83.87;98607.14;259484;1108;23219;-76
2021/03/17 07:58:51;;;;;;;18.83;10.23;;;;;;;2.81;83.79;98595.28;259420;1108;24147;-76
2021/03/17 08:03:54;;;;;;;19.15;10.55;;;;;;;2.91;83.33;98595.42;261677;1107;23228;-75
2021/03/17 08:08:59;;;;;;;13.97;9.27;;;;;;;3.00;83.57;98601.09;259880;1108;23015;-76
2021/03/17 08:14:02;;;;;;;16.03;9.53;;;;;;;3.11;83.25;98604.70;259570;1108;23224;-76
2021/03/17 08:19:18;;;;;;;16.50;9.87;;;;;;;3.19;83.34;98612.23;259420;1109;27377;-76
2021/03/17 08:24:41;;;;;;;21.23;12.40;;;;;;;3.26;82.71;98617.36;259794;1107;23475;-75
2021/03/17 08:29:48;;;;;;;18.97;11.47;;;;;;;3.27;82.75;98616.29;259461;1107;23083;-77
2021/03/17 08:34:57;;;;;;;19.13;11.50;;;;;;;3.31;82.73;98619.27;259511;1109;23098;-77
2021/03/17 08:39:59;;;;;;;17.70;10.45;;;;;;;3.31;82.61;98614.76;259198;1109;23202;-76
2021/03/17 08:45:19;;;;;;;22.37;13.03;;;;;;;3.38;82.59;98619.88;259457;1108;27653;-77
2021/03/17 08:50:27;;;;;;;21.52;12.78;;;;;;;3.41;82.53;98624.69;259746;1108;23023;-76
2021/03/17 08:55:39;;;;;;;17.97;10.57;;;;;;;3.49;82.44;98624.27;259530;1108;23016;-76
2021/03/17 09:00:45;;;;;;;24.50;12.00;;;;;;;3.79;82.69;98624.89;259722;1107;22996;-76
2021/03/17 09:06:14;;;;;;;25.03;14.37;;;;;;;4.24;82.61;98624.59;259691;1107;23079;-76
2021/03/17 09:11:31;;;;;;;23.10;13.85;;;;;;;4.55;81.85;98627.52;259265;1109;23046;-76
2021/03/17 09:17:10;;;;;;;22.13;14.30;;;;;;;4.91;81.57;98632.30;259404;1109;23028;-76
2021/03/17 09:22:37;;;;;;;24.83;15.53;;;;;;;5.04;80.18;98625.78;259243;1107;25972;-77
2021/03/17 09:27:50;;;;;;;23.07;13.63;;;;;;;5.02;79.94;98633.97;259541;1109;23026;-77
2021/03/17 09:33:06;;;;;;;22.50;13.77;;;;;;;5.06;79.75;98635.06;259828;1107;23020;-77
2021/03/17 09:38:14;;;;;;;27.07;16.53;;;;;;;5.12;78.74;98630.59;259545;1108;25973;-77
2021/03/17 09:43:29;;;;;;;25.80;14.33;;;;;;;5.09;77.92;98641.73;259481;1107;25608;-78
2021/03/17 09:48:31;;;;;;;23.63;14.50;;;;;;;5.25;78.55;98640.78;259794;1108;23022;-75
2021/03/17 09:53:35;;;;;;;21.47;12.13;;;;;;;5.35;76.17;98645.35;259560;1109;25918;-77
2021/03/17 09:58:41;;;;;;;25.00;14.47;;;;;;;5.39;75.97;98650.96;259694;1109;23048;-77
2021/03/17 10:03:46;;;;;;;19.43;10.53;;;;;;;5.51;74.68;98651.53;259501;1108;23430;-75
2021/03/17 10:08:55;;;;;;;18.67;10.03;;;;;;;5.66;73.29;98659.58;259867;1109;27353;-77
2021/03/17 10:14:01;;;;;;;21.77;11.83;;;;;;;5.88;73.42;98639.23;259666;1108;23083;-77
2021/03/17 10:19:04;;;;;;;18.60;12.10;;;;;;;6.07;73.25;98640.39;259416;1109;23040;-78
2021/03/17 10:24:37;;;;;;;19.00;11.20;;;;;;;6.23;72.48;98648.41;259704;1109;23031;-77
2021/03/17 10:29:41;;;;;;;16.53;10.80;;;;;;;6.22;71.21;98652.12;260803;1108;22949;-76
2021/03/17 10:34:44;;;;;;;18.17;11.07;;;;;;;6.39;71.19;98635.92;259940;1109;23535;-77
2021/03/17 10:39:47;;;;;;;18.67;11.63;;;;;;;6.59;70.05;98641.28;259393;1109;23194;-77
2021/03/17 10:45:05;;;;;;;20.23;11.53;;;;;;;6.39;68.84;98651.89;259979;1108;23208;-76
2021/03/17 10:50:13;;;;;;;21.60;12.10;;;;;;;6.15;69.74;98633.74;259929;1108;23972;-76
2021/03/17 10:55:20;;;;;;;22.00;12.63;;;;;;;6.11;69.91;98630.83;263295;1108;23016;-76
2021/03/17 11:00:26;;;;;;;21.30;12.83;;;;;;;6.25;69.20;98636.41;260289;1108;23031;-76
2021/03/17 11:05:32;;;;;;;22.17;12.40;;;;;;;6.38;69.05;98640.45;260821;1107;23204;-76
2021/03/17 11:10:50;;;;;;;17.93;11.03;;;;;;;6.53;67.68;98630.88;260357;1108;23199;-78
2021/03/17 11:15:58;;;;;;;18.27;10.77;;;;;;;6.76;68.14;98622.37;260256;1108;23002;-77
2021/03/17 11:21:14;;;;;;;18.67;10.07;;;;;;;7.03;65.64;98629.28;259669;1108;27369;-76
2021/03/17 11:26:27;;;;;;;16.33;8.97;;;;;;;6.66;64.41;98627.71;259374;1107;23096;-77
2021/03/17 11:31:32;;;;;;;13.33;7.93;;;;;;;6.24;64.08;98629.52;259434;1108;23078;-76
2021/03/17 11:36:36;;;;;;;13.20;8.00;;;;;;;6.10;63.71;98631.88;260050;1109;27768;-77
2021/03/17 11:41:40;;;;;;;13.97;8.13;;;;;;;6.12;63.84;98618.31;259615;1108;23864;-75
2021/03/17 11:46:43;;;;;;;14.93;8.90;;;;;;;5.93;63.10;98628.59;259591;1108;23455;-76
2021/03/17 11:51:47;;;;;;;11.07;6.60;;;;;;;6.16;63.30;98630.03;259487;1109;23164;-77
2021/03/17 11:56:50;;;;;;;11.30;7.73;;;;;;;6.32;63.02;98621.02;259313;1108;23079;-77
2021/03/17 12:01:52;;;;;;;13.60;8.05;;;;;;;6.33;61.91;98627.92;259306;1109;23188;-77
2021/03/17 12:06:54;;;;;;;12.30;8.00;;;;;;;6.35;61.16;98632.98;259542;1109;23220;-76
2021/03/17 12:11:56;;;;;;;17.00;9.63;;;;;;;6.40;61.71;98630.33;259521;1107;23487;-77
2021/03/17 12:17:01;;;;;;;16.40;9.40;;;;;;;6.44;61.77;98636.73;259514;1108;23128;-77
2021/03/17 12:22:03;;;;;;;17.10;9.73;;;;;;;6.46;61.72;98631.95;259689;1108;23009;-76
2021/03/17 12:27:06;;;;;;;13.67;9.07;;;;;;;6.54;61.79;98643.92;260108;1109;23021;-76
2021/03/17 12:32:08;;;;;;;15.63;9.80;;;;;;;6.61;60.94;98643.67;260184;1108;23196;-76
2021/03/17 12:37:11;;;;;;;17.43;10.27;;;;;;;6.46;60.13;98655.09;259667;1108;23180;-76
2021/03/17 12:42:15;;;;;;;16.93;10.50;;;;;;;6.38;60.00;98658.27;259354;1108;23077;-77
2021/03/17 12:47:18;;;;;;;18.67;10.80;;;;;;;6.29;61.55;98656.11;259735;1107;23054;-76
2021/03/17 12:52:20;;;;;;;17.63;9.90;;;;;;;6.21;60.67;98672.61;259333;1108;22991;-76
2021/03/17 12:57:23;;;;;;;16.57;9.30;;;;;;;5.91;60.75;98682.03;259493;1107;23078;-75
2021/03/17 13:02:26;;;;;;;15.53;9.00;;;;;;;5.61;61.82;98696.78;259230;1108;23479;-76
2021/03/17 13:07:28;;;;;;;16.57;9.10;;;;;;;5.20;62.35;98695.72;259624;1107;23119;-77
2021/03/17 13:12:32;;;;;;;15.27;9.07;;;;;;;4.95;62.41;98705.89;259476;1108;23209;-76
2021/03/17 13:17:35;;;;;;;16.73;8.60;;;;;;;4.73;63.54;98732.50;259447;1108;23017;-75
2021/03/17 13:22:38;;;;;;;15.80;7.90;;;;;;;4.62;64.22;98723.62;259682;1108;27501;-76
2021/03/17 13:27:40;;;;;;;14.40;8.67;;;;;;;4.28;63.99;98745.02;260020;1108;23177;-76
2021/03/17 13:32:43;;;;;;;13.15;8.00;;;;;;;3.85;64.47;98741.30;259450;1107;23035;-75
2021/03/17 13:37:45;;;;;;;12.73;7.13;;;;;;;3.56;64.87;98745.94;259636;1108;23026;-76
2021/03/17 13:42:47;;;;;;;14.30;8.50;;;;;;;3.33;65.47;98749.55;259543;1108;23030;-76
2021/03/17 13:47:49;;;;;;;14.75;8.20;;;;;;;3.15;65.69;98761.17;259616;1107;23223;-76
2021/03/17 13:52:52;;;;;;;11.80;6.55;;;;;;;3.02;66.49;98764.94;259317;1109;23417;-75
2021/03/17 13:57:55;;;;;;;9.67;6.27;;;;;;;2.96;65.87;98752.67;259325;1108;23031;-77
2021/03/17 14:02:58;;;;;;;13.77;7.07;;;;;;;3.15;66.35;98747.94;263305;1109;22901;-77
2021/03/17 14:08:01;;;;;;;11.67;6.70;;;;;;;3.41;66.38;98751.80;263508;1108;23198;-76
2021/03/17 14:13:04;;;;;;;10.87;5.97;;;;;;;3.57;66.64;98747.55;260056;1107;26459;-77
2021/03/17 14:18:06;;;;;;;10.17;5.87;;;;;;;3.77;65.85;98749.67;259583;1109;23023;-77
2021/03/17 14:23:09;;;;;;;8.83;5.77;;;;;;;3.96;65.56;98738.78;259257;1108;22976;-77
2021/03/17 14:28:11;;;;;;;9.07;5.70;;;;;;;4.05;65.68;98756.66;259332;1109;23485;-76
2021/03/17 14:33:13;;;;;;;10.33;5.97;;;;;;;4.05;65.02;98750.57;259394;1109;23029;-77
2021/03/17 14:38:17;;;;;;;13.37;6.90;;;;;;;3.83;64.28;98747.89;259469;1109;23023;-76
2021/03/17 14:43:21;;;;;;;10.47;6.03;;;;;;;3.72;64.86;98753.06;259662;1107;23431;-76
2021/03/17 14:48:23;;;;;;;9.30;5.37;;;;;;;3.66;64.99;98753.23;259596;1107;23054;-78
2021/03/17 14:53:26;;;;;;;9.10;5.67;;;;;;;3.68;64.51;98746.64;259942;1108;23137;-78
2021/03/17 14:58:29;;;;;;;9.35;5.75;;;;;;;3.72;64.74;98762.84;259596;1107;23103;-78
2021/03/17 15:03:31;;;;;;;9.17;5.63;;;;;;;3.69;64.39;98748.23;260057;1107;23363;-77
2021/03/17 15:08:34;;;;;;;11.05;5.60;;;;;;;3.73;64.48;98756.50;260700;1109;23033;-77
2021/03/17 15:13:37;;;;;;;14.07;6.30;;;;;;;3.81;64.26;98773.84;259907;1109;23096;-75
2021/03/17 15:18:39;;;;;;;9.43;5.23;;;;;;;3.78;63.20;98748.64;259688;1108;23017;-77
2021/03/17 15:23:41;;;;;;;10.33;5.63;;;;;;;3.78;63.61;98756.58;259082;1108;23314;-76
2021/03/17 15:28:43;;;;;;;7.75;4.70;;;;;;;3.80;63.81;98767.73;259110;1109;26562;-77
2021/03/17 15:33:45;;;;;;;7.40;4.17;;;;;;;3.82;64.06;98770.12;259222;1108;23353;-76
2021/03/17 15:38:49;;;;;;;8.00;5.10;;;;;;;3.84;63.96;98768.05;259102;1107;23015;-77
2021/03/17 15:43:53;;;;;;;8.80;5.27;;;;;;;3.81;63.25;98773.84;259045;1108;23101;-77
2021/03/17 15:48:55;;;;;;;11.60;6.20;;;;;;;3.79;63.76;98781.22;259305;1109;22999;-77
2021/03/17 15:53:57;;;;;;;9.60;5.50;;;;;;;3.82;64.22;98781.55;259074;1109;26443;-77
2021/03/17 15:58:59;;;;;;;8.20;4.67;;;;;;;3.83;64.11;98791.08;259127;1108;23003;-77
2021/03/17 16:04:02;;;;;;;8.70;5.20;;;;;;;3.81;64.19;98808.30;259206;1109;23151;-78
2021/03/17 16:09:05;;;;;;;11.47;5.87;;;;;;;3.71;64.15;98804.44;259288;1109;23021;-76
2021/03/17 16:14:08;;;;;;;12.97;6.83;;;;;;;3.63;64.04;98809.35;259579;1108;23077;-77
2021/03/17 16:19:10;;;;;;;10.43;5.87;;;;;;;3.53;63.95;98823.23;258983;1109;23043;-76
2021/03/17 16:24:15;;;;;;;10.05;5.75;;;;;;;3.41;63.71;98816.17;259036;1108;23077;-76
2021/03/17 16:29:18;;;;;;;9.63;5.83;;;;;;;3.35;64.25;98833.00;258995;1108;23773;-77
2021/03/17 16:34:20;;;;;;;7.27;5.10;;;;;;;3.30;64.84;98834.77;259036;1109;23033;-76
2021/03/17 16:39:23;;;;;;;10.57;6.43;;;;;;;3.25;64.69;98838.14;259091;1108;22986;-77
2021/03/17 16:44:25;;;;;;;12.13;6.43;;;;;;;3.18;64.85;98843.58;259090;1107;23090;-76
2021/03/17 16:49:28;;;;;;;9.40;5.73;;;;;;;3.15;64.68;98848.53;259048;1109;23347;-77
2021/03/17 16:54:30;;;;;;;11.17;6.13;;;;;;;3.14;64.63;98868.13;259020;1108;26382;-76
2021/03/17 16:59:32;;;;;;;10.03;6.03;;;;;;;3.10;64.87;98862.48;259151;1108;23254;-76
2021/03/17 17:04:35;;;;;;;10.57;6.13;;;;;;;3.08;65.34;98848.70;259109;1107;23076;-76
2021/03/17 17:09:38;;;;;;;10.87;6.63;;;;;;;3.07;65.32;98844.44;258997;1108;23023;-76
2021/03/17 17:14:40;;;;;;;11.07;5.97;;;;;;;3.05;65.58;98851.80;258881;1108;23828;-77
2021/03/17 17:19:42;;;;;;;10.30;6.27;;;;;;;3.03;65.07;98862.62;259184;1109;23080;-75
2021/03/17 17:24:44;;;;;;;10.50;5.53;;;;;;;3.01;65.43;98863.92;259631;1109;23225;-76
2021/03/17 17:29:46;;;;;;;12.90;6.50;;;;;;;3.00;65.44;98864.95;259467;1108;23171;-76
2021/03/17 17:34:48;;;;;;;13.47;6.97;;;;;;;2.98;66.15;98872.31;258992;1107;23099;-77
2021/03/17 17:39:51;;;;;;;15.73;7.40;;;;;;;2.93;66.42;98870.38;259005;1108;23074;-76
2021/03/17 17:44:53;;;;;;;14.53;8.03;;;;;;;2.93;66.59;98873.03;258982;1107;22990;-76
2021/03/17 17:49:55;;;;;;;14.43;8.07;;;;;;;2.91;66.66;98875.91;259022;1108;23023;-75
2021/03/17 17:54:57;;;;;;;14.47;8.13;;;;;;;2.89;66.34;98871.89;259077;1108;23025;-77
2021/03/17 18:00:00;;;;;;;15.67;7.80;;;;;;;2.86;66.36;98883.74;259003;1108;23113;-76
2021/03/17 18:05:09;;;;;;;15.60;8.53;;;;;;;2.85;67.13;98889.27;259270;1108;22994;-76
2021/03/17 18:10:19;;;;;;;19.60;9.50;;;;;;;2.87;67.32;98881.92;259031;1107;23222;-76
2021/03/17 18:15:23;;;;;;;19.63;9.53;;;;;;;2.86;67.01;98882.95;259063;1107;23049;-76
2021/03/17 18:20:28;;;;;;;15.70;8.13;;;;;;;2.85;67.23;98886.63;258990;1109;23073;-76
2021/03/17 18:25:33;;;;;;;17.50;9.23;;;;;;;2.87;67.59;98877.42;259311;1109;23076;-78
2021/03/17 18:30:36;;;;;;;13.95;7.85;;;;;;;2.86;68.04;98888.24;258817;1109;23018;-77
2021/03/17 18:35:38;;;;;;;16.73;8.37;;;;;;;2.82;67.52;98898.48;259146;1108;23067;-77
2021/03/17 18:40:40;;;;;;;17.87;8.73;;;;;;;2.79;67.78;98896.30;259227;1109;23148;-76
2021/03/17 18:45:42;;;;;;;13.80;8.10;;;;;;;2.79;68.27;98896.30;259105;1108;23086;-76
2021/03/17 18:50:45;;;;;;;16.75;9.40;;;;;;;2.77;68.78;98901.05;259099;1108;23030;-76
2021/03/17 18:55:47;;;;;;;17.60;8.80;;;;;;;2.72;68.55;98907.02;259228;1109;23034;-76
2021/03/17 19:01:09;;;;;;;18.13;10.20;;;;;;;2.70;69.01;98910.92;259020;1109;23073;-77
2021/03/17 19:06:11;;;;;;;20.33;10.20;;;;;;;2.68;68.45;98902.43;259085;1107;23073;-76
2021/03/17 19:11:14;;;;;;;15.80;8.23;;;;;;;2.64;68.46;98909.22;259132;1108;23080;-76
2021/03/17 19:16:17;;;;;;;19.40;9.80;;;;;;;2.62;68.47;98906.02;258796;1109;23077;-76
2021/03/17 19:21:24;;;;;;;15.27;8.23;;;;;;;2.63;68.97;98913.72;259168;1109;23027;-76
2021/03/17 19:26:27;;;;;;;16.30;8.60;;;;;;;2.62;69.09;98913.95;259111;1109;23426;-76
2021/03/17 19:31:36;;;;;;;11.80;8.13;;;;;;;2.63;68.79;98920.83;259169;1109;23222;-75
2021/03/17 19:36:43;;;;;;;13.30;7.63;;;;;;;2.56;68.96;98915.66;259160;1109;23022;-76
2021/03/17 19:41:52;;;;;;;13.00;6.90;;;;;;;2.52;69.27;98925.91;259152;1107;23885;-76
2021/03/17 19:46:55;;;;;;;11.95;6.70;;;;;;;2.50;69.20;98929.82;259052;1108;23202;-76
2021/03/17 19:52:00;;;;;;;13.37;6.67;;;;;;;2.50;69.10;98929.82;259595;1107;22985;-77
2021/03/17 19:57:21;;;;;;;10.27;6.77;;;;;;;2.50;69.07;98929.82;259050;1108;23091;-76
2021/03/17 20:02:43;;;;;;;14.90;7.57;;;;;;;2.47;69.46;98931.08;259067;1107;23171;-76
2021/03/17 20:07:53;;;;;;;17.10;9.27;;;;;;;2.50;69.31;98935.11;258981;1108;23073;-75
2021/03/17 20:12:56;;;;;;;19.33;10.10;;;;;;;2.46;69.87;98936.61;259146;1108;23487;-76
2021/03/17 20:18:20;;;;;;;17.00;8.93;;;;;;;2.42;69.54;98935.45;258884;1108;23202;-76
2021/03/17 20:23:30;;;;;;;;;;;;;;;2.40;69.63;98933.05;259116;1109;23084;-76
2021/03/17 20:28:33;;;;;;;14.23;9.03;;;;;;;2.40;70.44;98933.05;259145;1109;21532;-77
2021/03/17 20:34:04;;;;;;;17.17;9.63;;;;;;;2.36;69.64;98930.05;258653;1108;23035;-75
2021/03/17 20:39:07;;;;;;;17.10;8.13;;;;;;;2.30;70.31;98933.63;259131;1107;26102;-77
2021/03/17 20:44:12;;;;;;;15.55;8.65;;;;;;;2.30;70.33;98930.98;259205;1108;23457;-77
2021/03/17 20:49:14;;;;;;;14.80;8.33;;;;;;;2.30;70.47;98927.54;259134;1109;23223;-76
2021/03/17 20:54:17;;;;;;;15.90;8.30;;;;;;;2.27;71.18;98931.45;259120;1108;23019;-77
2021/03/17 20:59:27;;;;;;;14.17;8.33;;;;;;;2.25;70.34;98932.70;259215;1107;23026;-77
2021/03/17 21:04:30;;;;;;;16.47;9.00;;;;;;;2.24;70.58;98929.27;259037;1109;23039;-76
2021/03/17 21:09:34;;;;;;;14.40;7.87;;;;;;;2.23;70.39;98936.38;259084;1107;23054;-76
2021/03/17 21:14:41;;;;;;;16.90;7.40;;;;;;;2.21;70.81;98930.52;259050;1108;23480;-76
2021/03/17 21:19:44;;;;;;;15.40;7.37;;;;;;;2.20;70.96;98942.13;259258;1108;23951;-76
2021/03/17 21:24:47;;;;;;;14.43;7.50;;;;;;;2.20;70.32;98941.33;259316;1108;23019;-76
2021/03/17 21:29:54;;;;;;;14.20;6.73;;;;;;;2.18;70.42;98930.98;258958;1107;23075;-76
2021/03/17 21:34:58;;;;;;;15.60;7.27;;;;;;;2.15;70.42;98935.91;258987;1108;23063;-76
2021/03/17 21:40:36;;;;;;;15.43;7.80;;;;;;;2.13;71.17;98936.15;258667;1108;23190;-76
2021/03/17 21:45:39;;;;;;;13.17;6.77;;;;;;;2.09;70.84;98932.35;259011;1108;23223;-75
2021/03/17 21:50:50;;;;;;;12.57;6.93;;;;;;;2.07;70.38;98926.50;259054;1108;23262;-76
2021/03/17 21:55:52;;;;;;;13.00;6.70;;;;;;;2.07;70.54;98929.14;258822;1109;23086;-77
2021/03/17 22:00:56;;;;;;;17.17;7.30;;;;;;;2.03;70.00;98938.56;259289;1108;23252;-75
2021/03/17 22:05:58;;;;;;;17.03;8.60;;;;;;;2.02;70.20;98934.30;259130;1109;24654;-76
2021/03/17 22:11:01;;;;;;;16.30;7.40;;;;;;;2.02;70.70;98926.37;259049;1109;23017;-75
2021/03/17 22:16:04;;;;;;;11.47;6.40;;;;;;;2.00;70.45;98928.42;258845;1109;22983;-76
2021/03/17 22:21:11;;;;;;;12.73;6.23;;;;;;;1.98;71.02;98935.78;259209;1108;23190;-76
2021/03/17 22:26:13;;;;;;;12.90;6.13;;;;;;;1.97;70.16;98928.88;259203;1107;23033;-76
2021/03/17 22:31:16;;;;;;;11.63;6.70;;;;;;;1.95;69.90;98920.40;259139;1109;23077;-76
2021/03/17 22:36:19;;;;;;;12.43;6.67;;;;;;;1.93;71.01;98920.63;259098;1108;23030;-76
2021/03/17 22:41:22;;;;;;;11.07;6.20;;;;;;;1.94;69.93;98921.42;259029;1107;23018;-75
2021/03/17 22:46:25;;;;;;;13.77;6.37;;;;;;;1.93;70.80;98935.66;258945;1109;23041;-76
2021/03/17 22:51:28;;;;;;;10.13;5.47;;;;;;;1.88;69.94;98923.93;259117;1109;24657;-77
2021/03/17 22:56:31;;;;;;;8.90;5.37;;;;;;;1.86;70.17;98922.55;259016;1109;23013;-77
2021/03/17 23:01:34;;;;;;;10.70;5.60;;;;;;;1.86;71.01;98923.37;258739;1108;23229;-76
2021/03/17 23:06:37;;;;;;;9.15;5.60;;;;;;;1.86;70.62;98922.55;258980;1108;23223;-76
2021/03/17 23:11:42;;;;;;;9.60;5.53;;;;;;;1.82;70.22;98914.28;259025;1109;23079;-77
2021/03/17 23:16:50;;;;;;;8.50;4.77;;;;;;;1.78;70.12;98910.48;259118;1109;23017;-76
2021/03/17 23:21:53;;;;;;;9.33;4.63;;;;;;;1.76;70.49;98917.81;259093;1109;23004;-75
2021/03/17 23:27:19;;;;;;;8.77;4.50;;;;;;;1.74;70.49;98913.81;258848;1108;23021;-76
2021/03/17 23:32:23;;;;;;;8.47;4.90;;;;;;;1.70;70.59;98910.81;258976;1108;23155;-76
2021/03/17 23:37:28;;;;;;;9.43;4.67;;;;;;;1.65;70.21;98918.59;259176;1108;23037;-76
2021/03/17 23:42:34;;;;;;;11.87;5.70;;;;;;;1.63;70.47;98921.47;259021;1109;23015;-76